sensor_id;sensor_type;location;lat;lon;timestamp;P1;durP1;ratioP1;P2;durP2;ratioP2
76380;SDS011;65202;52.520;10.528;2022-11-20T00:01:27;37.05;;;20.05;;
76380;SDS011;65202;52.520;10.528;2022-11-20T00:03:56;39.65;;;20.98;;
76380;SDS011;65202;52.520;10.528;2022-11-20T00:06:25;32.63;;;19.13;;
76380;SDS011;65202;52.520;10.528;2022-11-20T00:08:55;31.85;;;19.02;;
76380;SDS011;65202;52.520;10.528;2022-11-20T00:11:25;30.35;;;18.42;;
76380;SDS011;65202;52.520;10.528;2022-11-20T00:13:55;32.47;;;18.70;;
76380;SDS011;65202;52.520;10.528;2022-11-20T00:16:26;34.50;;;19.15;;
76380;SDS011;65202;52.520;10.528;2022-11-20T00:18:56;33.67;;;19.20;;
76380;SDS011;65202;52.520;10.528;2022-11-20T00:21:27;33.25;;;19.23;;
76380;SDS011;65202;52.520;10.528;2022-11-20T00:23:57;36.08;;;20.35;;
76380;SDS011;65202;52.520;10.528;2022-11-20T00:26:25;35.72;;;19.45;;
76380;SDS011;65202;52.520;10.528;2022-11-20T00:28:55;35.35;;;20.27;;
76380;SDS011;65202;52.520;10.528;2022-11-20T00:31:27;33.95;;;19.90;;
76380;SDS011;65202;52.520;10.528;2022-11-20T00:33:56;33.70;;;19.73;;
76380;SDS011;65202;52.520;10.528;2022-11-20T00:36:24;35.53;;;20.20;;
76380;SDS011;65202;52.520;10.528;2022-11-20T00:38:56;36.05;;;19.83;;
76380;SDS011;65202;52.520;10.528;2022-11-20T00:41:26;32.22;;;19.05;;
76380;SDS011;65202;52.520;10.528;2022-11-20T00:43:55;34.63;;;19.13;;
76380;SDS011;65202;52.520;10.528;2022-11-20T00:46:24;34.20;;;19.33;;
76380;SDS011;65202;52.520;10.528;2022-11-20T00:48:54;31.27;;;18.90;;
76380;SDS011;65202;52.520;10.528;2022-11-20T00:51:22;33.00;;;18.48;;
76380;SDS011;65202;52.520;10.528;2022-11-20T00:53:54;32.95;;;19.27;;
76380;SDS011;65202;52.520;10.528;2022-11-20T00:56:24;28.85;;;18.08;;
76380;SDS011;65202;52.520;10.528;2022-11-20T00:58:52;33.70;;;18.60;;
76380;SDS011;65202;52.520;10.528;2022-11-20T01:01:23;32.78;;;19.50;;
76380;SDS011;65202;52.520;10.528;2022-11-20T01:03:54;35.22;;;19.42;;
76380;SDS011;65202;52.520;10.528;2022-11-20T01:06:34;30.60;;;18.13;;
76380;SDS011;65202;52.520;10.528;2022-11-20T01:09:06;35.30;;;19.17;;
76380;SDS011;65202;52.520;10.528;2022-11-20T01:11:39;34.95;;;18.65;;
76380;SDS011;65202;52.520;10.528;2022-11-20T01:14:13;39.60;;;21.08;;
76380;SDS011;65202;52.520;10.528;2022-11-20T01:16:45;36.58;;;19.85;;
76380;SDS011;65202;52.520;10.528;2022-11-20T01:19:17;31.67;;;18.97;;
76380;SDS011;65202;52.520;10.528;2022-11-20T01:21:51;36.83;;;19.17;;
76380;SDS011;65202;52.520;10.528;2022-11-20T01:24:21;32.30;;;18.83;;
76380;SDS011;65202;52.520;10.528;2022-11-20T01:26:50;35.35;;;18.33;;
76380;SDS011;65202;52.520;10.528;2022-11-20T01:29:20;33.58;;;18.33;;
76380;SDS011;65202;52.520;10.528;2022-11-20T01:31:51;34.35;;;19.00;;
76380;SDS011;65202;52.520;10.528;2022-11-20T01:34:19;34.20;;;19.08;;
76380;SDS011;65202;52.520;10.528;2022-11-20T01:36:49;34.80;;;18.27;;
76380;SDS011;65202;52.520;10.528;2022-11-20T01:39:19;32.95;;;18.73;;
76380;SDS011;65202;52.520;10.528;2022-11-20T01:41:51;32.22;;;18.08;;
76380;SDS011;65202;52.520;10.528;2022-11-20T01:44:47;32.08;;;18.33;;
76380;SDS011;65202;52.520;10.528;2022-11-20T01:47:24;33.70;;;19.17;;
76380;SDS011;65202;52.520;10.528;2022-11-20T01:50:21;30.60;;;18.08;;
76380;SDS011;65202;52.520;10.528;2022-11-20T01:52:56;33.38;;;18.20;;
76380;SDS011;65202;52.520;10.528;2022-11-20T01:55:32;35.60;;;18.25;;
76380;SDS011;65202;52.520;10.528;2022-11-20T01:58:06;36.35;;;19.17;;
76380;SDS011;65202;52.520;10.528;2022-11-20T02:00:33;32.20;;;18.58;;
76380;SDS011;65202;52.520;10.528;2022-11-20T02:03:05;32.60;;;18.88;;
76380;SDS011;65202;52.520;10.528;2022-11-20T02:08:48;29.23;;;17.83;;
76380;SDS011;65202;52.520;10.528;2022-11-20T02:11:16;30.92;;;18.50;;
76380;SDS011;65202;52.520;10.528;2022-11-20T02:13:43;30.38;;;18.27;;
76380;SDS011;65202;52.520;10.528;2022-11-20T02:18:50;30.70;;;18.60;;
76380;SDS011;65202;52.520;10.528;2022-11-20T02:21:21;36.97;;;18.60;;
76380;SDS011;65202;52.520;10.528;2022-11-20T02:24:01;36.80;;;18.92;;
76380;SDS011;65202;52.520;10.528;2022-11-20T02:26:54;35.88;;;18.77;;
76380;SDS011;65202;52.520;10.528;2022-11-20T02:32:03;33.97;;;18.45;;
76380;SDS011;65202;52.520;10.528;2022-11-20T02:34:30;32.35;;;19.33;;
76380;SDS011;65202;52.520;10.528;2022-11-20T02:36:58;30.63;;;18.10;;
76380;SDS011;65202;52.520;10.528;2022-11-20T02:39:26;30.60;;;18.48;;
76380;SDS011;65202;52.520;10.528;2022-11-20T02:41:55;28.30;;;17.92;;
76380;SDS011;65202;52.520;10.528;2022-11-20T02:44:23;35.20;;;18.40;;
76380;SDS011;65202;52.520;10.528;2022-11-20T02:46:51;36.25;;;19.25;;
76380;SDS011;65202;52.520;10.528;2022-11-20T02:49:18;31.02;;;18.17;;
76380;SDS011;65202;52.520;10.528;2022-11-20T02:51:46;29.73;;;17.98;;
76380;SDS011;65202;52.520;10.528;2022-11-20T02:54:13;31.67;;;17.20;;
76380;SDS011;65202;52.520;10.528;2022-11-20T02:56:40;27.13;;;16.42;;
76380;SDS011;65202;52.520;10.528;2022-11-20T02:59:08;29.95;;;17.77;;
76380;SDS011;65202;52.520;10.528;2022-11-20T03:01:35;30.50;;;16.92;;
76380;SDS011;65202;52.520;10.528;2022-11-20T03:04:03;31.55;;;17.70;;
76380;SDS011;65202;52.520;10.528;2022-11-20T03:06:30;32.28;;;18.20;;
76380;SDS011;65202;52.520;10.528;2022-11-20T03:08:58;32.85;;;17.73;;
76380;SDS011;65202;52.520;10.528;2022-11-20T03:11:25;29.42;;;17.95;;
76380;SDS011;65202;52.520;10.528;2022-11-20T03:13:53;31.67;;;17.80;;
76380;SDS011;65202;52.520;10.528;2022-11-20T03:16:21;29.92;;;17.08;;
76380;SDS011;65202;52.520;10.528;2022-11-20T03:18:51;29.33;;;17.60;;
76380;SDS011;65202;52.520;10.528;2022-11-20T03:21:19;29.85;;;17.33;;
76380;SDS011;65202;52.520;10.528;2022-11-20T03:23:46;30.88;;;17.33;;
76380;SDS011;65202;52.520;10.528;2022-11-20T03:26:15;30.85;;;17.45;;
76380;SDS011;65202;52.520;10.528;2022-11-20T03:28:47;28.33;;;14.00;;
76380;SDS011;65202;52.520;10.528;2022-11-20T03:31:17;30.75;;;17.17;;
76380;SDS011;65202;52.520;10.528;2022-11-20T03:33:52;31.00;;;17.95;;
76380;SDS011;65202;52.520;10.528;2022-11-20T03:36:20;32.17;;;17.40;;
76380;SDS011;65202;52.520;10.528;2022-11-20T03:38:48;31.38;;;17.55;;
76380;SDS011;65202;52.520;10.528;2022-11-20T03:41:19;30.60;;;17.40;;
76380;SDS011;65202;52.520;10.528;2022-11-20T03:43:54;32.65;;;17.38;;
76380;SDS011;65202;52.520;10.528;2022-11-20T03:46:28;30.48;;;16.83;;
76380;SDS011;65202;52.520;10.528;2022-11-20T03:48:56;30.42;;;17.60;;
76380;SDS011;65202;52.520;10.528;2022-11-20T03:51:27;32.13;;;17.20;;
76380;SDS011;65202;52.520;10.528;2022-11-20T03:54:01;29.67;;;17.25;;
76380;SDS011;65202;52.520;10.528;2022-11-20T03:56:38;31.00;;;17.50;;
76380;SDS011;65202;52.520;10.528;2022-11-20T03:59:06;32.05;;;16.65;;
76380;SDS011;65202;52.520;10.528;2022-11-20T04:01:36;29.58;;;17.13;;
76380;SDS011;65202;52.520;10.528;2022-11-20T04:04:04;27.40;;;16.23;;
76380;SDS011;65202;52.520;10.528;2022-11-20T04:06:36;29.50;;;17.38;;
76380;SDS011;65202;52.520;10.528;2022-11-20T04:09:04;29.67;;;16.88;;
76380;SDS011;65202;52.520;10.528;2022-11-20T04:11:34;31.42;;;15.95;;
76380;SDS011;65202;52.520;10.528;2022-11-20T04:14:04;29.10;;;16.95;;
76380;SDS011;65202;52.520;10.528;2022-11-20T04:16:39;27.05;;;15.70;;
76380;SDS011;65202;52.520;10.528;2022-11-20T04:19:10;27.52;;;16.52;;
76380;SDS011;65202;52.520;10.528;2022-11-20T04:21:41;26.95;;;16.15;;
76380;SDS011;65202;52.520;10.528;2022-11-20T04:24:10;29.50;;;16.65;;
76380;SDS011;65202;52.520;10.528;2022-11-20T04:26:38;29.60;;;16.55;;
76380;SDS011;65202;52.520;10.528;2022-11-20T04:29:05;29.42;;;16.17;;
76380;SDS011;65202;52.520;10.528;2022-11-20T04:31:33;27.45;;;15.82;;
76380;SDS011;65202;52.520;10.528;2022-11-20T04:34:02;28.17;;;16.33;;
76380;SDS011;65202;52.520;10.528;2022-11-20T04:36:32;28.30;;;16.30;;
76380;SDS011;65202;52.520;10.528;2022-11-20T04:39:01;28.30;;;17.27;;
76380;SDS011;65202;52.520;10.528;2022-11-20T04:41:33;59.85;;;29.85;;
76380;SDS011;65202;52.520;10.528;2022-11-20T04:44:03;39.97;;;19.85;;
76380;SDS011;65202;52.520;10.528;2022-11-20T04:46:36;25.70;;;15.75;;
76380;SDS011;65202;52.520;10.528;2022-11-20T04:49:08;28.05;;;15.45;;
76380;SDS011;65202;52.520;10.528;2022-11-20T04:51:38;27.00;;;16.35;;
76380;SDS011;65202;52.520;10.528;2022-11-20T04:54:05;24.08;;;15.75;;
76380;SDS011;65202;52.520;10.528;2022-11-20T04:56:32;27.58;;;16.55;;
76380;SDS011;65202;52.520;10.528;2022-11-20T04:59:00;31.35;;;17.40;;
76380;SDS011;65202;52.520;10.528;2022-11-20T05:01:29;29.67;;;16.10;;
76380;SDS011;65202;52.520;10.528;2022-11-20T05:03:56;31.77;;;16.95;;
76380;SDS011;65202;52.520;10.528;2022-11-20T05:06:23;27.23;;;16.70;;
76380;SDS011;65202;52.520;10.528;2022-11-20T05:08:51;26.63;;;16.25;;
76380;SDS011;65202;52.520;10.528;2022-11-20T05:11:19;26.58;;;16.23;;
76380;SDS011;65202;52.520;10.528;2022-11-20T05:13:48;30.85;;;16.90;;
76380;SDS011;65202;52.520;10.528;2022-11-20T05:16:21;29.33;;;16.92;;
76380;SDS011;65202;52.520;10.528;2022-11-20T05:18:51;27.27;;;15.77;;
76380;SDS011;65202;52.520;10.528;2022-11-20T05:21:21;27.63;;;17.60;;
76380;SDS011;65202;52.520;10.528;2022-11-20T05:23:48;29.63;;;17.83;;
76380;SDS011;65202;52.520;10.528;2022-11-20T05:26:17;27.17;;;17.30;;
76380;SDS011;65202;52.520;10.528;2022-11-20T05:28:48;21.88;;;12.57;;
76380;SDS011;65202;52.520;10.528;2022-11-20T05:31:18;32.63;;;17.38;;
76380;SDS011;65202;52.520;10.528;2022-11-20T05:33:54;27.02;;;16.40;;
76380;SDS011;65202;52.520;10.528;2022-11-20T05:36:23;28.23;;;16.10;;
76380;SDS011;65202;52.520;10.528;2022-11-20T05:38:51;28.58;;;16.92;;
76380;SDS011;65202;52.520;10.528;2022-11-20T05:41:24;30.00;;;17.27;;
76380;SDS011;65202;52.520;10.528;2022-11-20T05:43:51;29.00;;;16.17;;
76380;SDS011;65202;52.520;10.528;2022-11-20T05:46:19;32.63;;;18.55;;
76380;SDS011;65202;52.520;10.528;2022-11-20T05:48:54;49.53;;;23.55;;
76380;SDS011;65202;52.520;10.528;2022-11-20T05:51:23;30.13;;;17.20;;
76380;SDS011;65202;52.520;10.528;2022-11-20T05:53:51;28.15;;;16.52;;
76380;SDS011;65202;52.520;10.528;2022-11-20T05:56:19;27.45;;;16.02;;
76380;SDS011;65202;52.520;10.528;2022-11-20T05:58:48;27.55;;;16.38;;
76380;SDS011;65202;52.520;10.528;2022-11-20T06:01:21;30.20;;;17.08;;
76380;SDS011;65202;52.520;10.528;2022-11-20T06:03:51;29.35;;;16.60;;
76380;SDS011;65202;52.520;10.528;2022-11-20T06:06:20;32.85;;;16.95;;
76380;SDS011;65202;52.520;10.528;2022-11-20T06:08:48;29.48;;;17.27;;
76380;SDS011;65202;52.520;10.528;2022-11-20T06:11:16;27.42;;;15.90;;
76380;SDS011;65202;52.520;10.528;2022-11-20T06:13:44;32.17;;;16.70;;
76380;SDS011;65202;52.520;10.528;2022-11-20T06:16:14;26.13;;;15.95;;
76380;SDS011;65202;52.520;10.528;2022-11-20T06:18:44;29.55;;;16.90;;
76380;SDS011;65202;52.520;10.528;2022-11-20T06:21:14;29.83;;;16.80;;
76380;SDS011;65202;52.520;10.528;2022-11-20T06:23:44;31.98;;;17.00;;
76380;SDS011;65202;52.520;10.528;2022-11-20T06:26:14;32.30;;;18.23;;
76380;SDS011;65202;52.520;10.528;2022-11-20T06:28:49;28.88;;;16.80;;
76380;SDS011;65202;52.520;10.528;2022-11-20T06:31:18;29.33;;;17.00;;
76380;SDS011;65202;52.520;10.528;2022-11-20T06:33:48;26.80;;;16.13;;
76380;SDS011;65202;52.520;10.528;2022-11-20T06:36:16;32.30;;;17.33;;
76380;SDS011;65202;52.520;10.528;2022-11-20T06:38:47;28.63;;;16.40;;
76380;SDS011;65202;52.520;10.528;2022-11-20T06:41:15;30.50;;;17.10;;
76380;SDS011;65202;52.520;10.528;2022-11-20T06:43:45;27.60;;;16.67;;
76380;SDS011;65202;52.520;10.528;2022-11-20T06:46:13;26.73;;;15.88;;
76380;SDS011;65202;52.520;10.528;2022-11-20T06:48:44;29.65;;;15.57;;
76380;SDS011;65202;52.520;10.528;2022-11-20T06:51:13;29.48;;;16.75;;
76380;SDS011;65202;52.520;10.528;2022-11-20T06:53:40;30.85;;;17.40;;
76380;SDS011;65202;52.520;10.528;2022-11-20T06:56:08;29.10;;;16.73;;
76380;SDS011;65202;52.520;10.528;2022-11-20T06:58:36;31.55;;;17.10;;
76380;SDS011;65202;52.520;10.528;2022-11-20T07:01:07;29.65;;;17.02;;
76380;SDS011;65202;52.520;10.528;2022-11-20T07:03:38;30.27;;;17.27;;
76380;SDS011;65202;52.520;10.528;2022-11-20T07:06:07;26.85;;;16.08;;
76380;SDS011;65202;52.520;10.528;2022-11-20T07:08:35;28.58;;;15.98;;
76380;SDS011;65202;52.520;10.528;2022-11-20T07:11:04;27.13;;;15.82;;
76380;SDS011;65202;52.520;10.528;2022-11-20T07:13:33;28.10;;;15.70;;
76380;SDS011;65202;52.520;10.528;2022-11-20T07:16:03;28.40;;;15.60;;
76380;SDS011;65202;52.520;10.528;2022-11-20T07:18:34;29.65;;;16.33;;
76380;SDS011;65202;52.520;10.528;2022-11-20T07:21:02;25.60;;;15.20;;
76380;SDS011;65202;52.520;10.528;2022-11-20T07:23:33;27.40;;;15.82;;
76380;SDS011;65202;52.520;10.528;2022-11-20T07:26:08;27.45;;;15.30;;
76380;SDS011;65202;52.520;10.528;2022-11-20T07:28:37;30.05;;;16.00;;
76380;SDS011;65202;52.520;10.528;2022-11-20T07:31:05;26.92;;;15.48;;
76380;SDS011;65202;52.520;10.528;2022-11-20T07:33:33;29.75;;;16.05;;
76380;SDS011;65202;52.520;10.528;2022-11-20T07:36:00;27.23;;;15.13;;
76380;SDS011;65202;52.520;10.528;2022-11-20T07:38:28;23.90;;;14.13;;
76380;SDS011;65202;52.520;10.528;2022-11-20T07:40:56;26.02;;;14.85;;
76380;SDS011;65202;52.520;10.528;2022-11-20T07:43:24;21.98;;;13.38;;
76380;SDS011;65202;52.520;10.528;2022-11-20T07:45:52;24.35;;;16.55;;
76380;SDS011;65202;52.520;10.528;2022-11-20T07:48:23;23.77;;;14.70;;
76380;SDS011;65202;52.520;10.528;2022-11-20T07:50:54;24.02;;;15.07;;
76380;SDS011;65202;52.520;10.528;2022-11-20T07:53:26;26.50;;;13.88;;
76380;SDS011;65202;52.520;10.528;2022-11-20T07:55:53;27.80;;;16.65;;
76380;SDS011;65202;52.520;10.528;2022-11-20T07:58:20;25.60;;;15.55;;
76380;SDS011;65202;52.520;10.528;2022-11-20T08:00:48;22.60;;;14.38;;
76380;SDS011;65202;52.520;10.528;2022-11-20T08:03:16;24.10;;;14.23;;
76380;SDS011;65202;52.520;10.528;2022-11-20T08:05:50;24.48;;;14.57;;
76380;SDS011;65202;52.520;10.528;2022-11-20T08:08:18;26.15;;;15.77;;
76380;SDS011;65202;52.520;10.528;2022-11-20T08:10:45;38.85;;;22.45;;
76380;SDS011;65202;52.520;10.528;2022-11-20T08:13:13;32.10;;;18.40;;
76380;SDS011;65202;52.520;10.528;2022-11-20T08:15:58;26.52;;;15.63;;
76380;SDS011;65202;52.520;10.528;2022-11-20T08:18:26;29.42;;;18.17;;
76380;SDS011;65202;52.520;10.528;2022-11-20T08:21:02;31.52;;;18.17;;
76380;SDS011;65202;52.520;10.528;2022-11-20T08:23:30;28.43;;;16.50;;
76380;SDS011;65202;52.520;10.528;2022-11-20T08:25:58;22.92;;;13.93;;
76380;SDS011;65202;52.520;10.528;2022-11-20T08:28:25;36.72;;;21.33;;
76380;SDS011;65202;52.520;10.528;2022-11-20T08:30:57;37.97;;;21.92;;
76380;SDS011;65202;52.520;10.528;2022-11-20T08:33:28;31.27;;;18.50;;
76380;SDS011;65202;52.520;10.528;2022-11-20T08:36:00;22.00;;;14.18;;
76380;SDS011;65202;52.520;10.528;2022-11-20T08:38:31;24.65;;;14.43;;
76380;SDS011;65202;52.520;10.528;2022-11-20T08:40:59;24.20;;;13.45;;
76380;SDS011;65202;52.520;10.528;2022-11-20T08:43:46;19.85;;;12.85;;
76380;SDS011;65202;52.520;10.528;2022-11-20T08:46:14;21.98;;;13.23;;
76380;SDS011;65202;52.520;10.528;2022-11-20T08:48:41;24.20;;;13.77;;
76380;SDS011;65202;52.520;10.528;2022-11-20T08:51:09;21.80;;;13.40;;
76380;SDS011;65202;52.520;10.528;2022-11-20T08:53:37;20.92;;;12.98;;
76380;SDS011;65202;52.520;10.528;2022-11-20T08:56:06;23.42;;;11.90;;
76380;SDS011;65202;52.520;10.528;2022-11-20T08:58:33;20.42;;;11.85;;
76380;SDS011;65202;52.520;10.528;2022-11-20T09:01:21;18.30;;;12.35;;
76380;SDS011;65202;52.520;10.528;2022-11-20T09:03:54;21.58;;;12.48;;
76380;SDS011;65202;52.520;10.528;2022-11-20T09:06:23;18.63;;;11.52;;
76380;SDS011;65202;52.520;10.528;2022-11-20T09:08:53;18.98;;;11.48;;
76380;SDS011;65202;52.520;10.528;2022-11-20T09:11:21;15.20;;;11.15;;
76380;SDS011;65202;52.520;10.528;2022-11-20T09:13:49;16.10;;;10.88;;
76380;SDS011;65202;52.520;10.528;2022-11-20T09:16:16;17.10;;;11.20;;
76380;SDS011;65202;52.520;10.528;2022-11-20T09:18:43;29.17;;;16.50;;
76380;SDS011;65202;52.520;10.528;2022-11-20T09:21:12;26.98;;;16.48;;
76380;SDS011;65202;52.520;10.528;2022-11-20T09:23:40;17.83;;;11.27;;
76380;SDS011;65202;52.520;10.528;2022-11-20T09:26:11;16.30;;;10.80;;
76380;SDS011;65202;52.520;10.528;2022-11-20T09:28:40;18.88;;;10.88;;
76380;SDS011;65202;52.520;10.528;2022-11-20T09:31:08;15.70;;;10.00;;
76380;SDS011;65202;52.520;10.528;2022-11-20T09:33:52;14.85;;;10.25;;
76380;SDS011;65202;52.520;10.528;2022-11-20T09:36:19;52.75;;;23.67;;
76380;SDS011;65202;52.520;10.528;2022-11-20T09:38:47;17.80;;;11.70;;
76380;SDS011;65202;52.520;10.528;2022-11-20T09:50:23;18.23;;;10.60;;
76380;SDS011;65202;52.520;10.528;2022-11-20T09:56:24;17.27;;;9.82;;
76380;SDS011;65202;52.520;10.528;2022-11-20T09:58:54;16.70;;;10.32;;
76380;SDS011;65202;52.520;10.528;2022-11-20T10:01:26;16.08;;;10.30;;
76380;SDS011;65202;52.520;10.528;2022-11-20T10:04:01;16.20;;;10.52;;
76380;SDS011;65202;52.520;10.528;2022-11-20T10:10:00;15.93;;;10.63;;
76380;SDS011;65202;52.520;10.528;2022-11-20T10:15:46;15.55;;;9.95;;
76380;SDS011;65202;52.520;10.528;2022-11-20T10:25:04;17.58;;;11.27;;
76380;SDS011;65202;52.520;10.528;2022-11-20T10:30:36;16.02;;;11.50;;
76380;SDS011;65202;52.520;10.528;2022-11-20T10:33:24;16.30;;;10.65;;
76380;SDS011;65202;52.520;10.528;2022-11-20T10:38:56;18.70;;;11.68;;
76380;SDS011;65202;52.520;10.528;2022-11-20T10:41:40;15.10;;;11.05;;
76380;SDS011;65202;52.520;10.528;2022-11-20T10:44:15;15.70;;;11.40;;
76380;SDS011;65202;52.520;10.528;2022-11-20T10:47:24;16.10;;;10.52;;
76380;SDS011;65202;52.520;10.528;2022-11-20T10:49:54;15.93;;;10.43;;
76380;SDS011;65202;52.520;10.528;2022-11-20T10:52:28;16.02;;;10.80;;
76380;SDS011;65202;52.520;10.528;2022-11-20T10:55:25;16.15;;;11.35;;
76380;SDS011;65202;52.520;10.528;2022-11-20T10:58:08;17.77;;;10.73;;
76380;SDS011;65202;52.520;10.528;2022-11-20T11:00:43;18.48;;;11.20;;
76380;SDS011;65202;52.520;10.528;2022-11-20T11:03:19;15.85;;;11.05;;
76380;SDS011;65202;52.520;10.528;2022-11-20T11:05:57;16.58;;;11.10;;
76380;SDS011;65202;52.520;10.528;2022-11-20T11:08:36;35.35;;;19.38;;
76380;SDS011;65202;52.520;10.528;2022-11-20T11:11:18;15.80;;;10.48;;
76380;SDS011;65202;52.520;10.528;2022-11-20T11:14:13;16.25;;;10.88;;
76380;SDS011;65202;52.520;10.528;2022-11-20T11:16:49;15.98;;;11.23;;
76380;SDS011;65202;52.520;10.528;2022-11-20T11:19:17;14.95;;;10.77;;
76380;SDS011;65202;52.520;10.528;2022-11-20T11:21:49;15.60;;;10.95;;
76380;SDS011;65202;52.520;10.528;2022-11-20T11:24:25;16.65;;;11.52;;
76380;SDS011;65202;52.520;10.528;2022-11-20T11:27:11;19.02;;;12.07;;
76380;SDS011;65202;52.520;10.528;2022-11-20T11:29:47;16.40;;;11.40;;
76380;SDS011;65202;52.520;10.528;2022-11-20T11:32:17;18.63;;;11.63;;
76380;SDS011;65202;52.520;10.528;2022-11-20T11:35:00;17.05;;;11.57;;
76380;SDS011;65202;52.520;10.528;2022-11-20T11:37:33;16.58;;;11.43;;
76380;SDS011;65202;52.520;10.528;2022-11-20T11:40:04;16.55;;;11.52;;
76380;SDS011;65202;52.520;10.528;2022-11-20T11:42:54;17.13;;;11.60;;
76380;SDS011;65202;52.520;10.528;2022-11-20T11:45:25;20.55;;;11.38;;
76380;SDS011;65202;52.520;10.528;2022-11-20T11:47:54;17.42;;;11.23;;
76380;SDS011;65202;52.520;10.528;2022-11-20T11:50:27;16.95;;;10.80;;
76380;SDS011;65202;52.520;10.528;2022-11-20T11:53:15;18.10;;;10.80;;
76380;SDS011;65202;52.520;10.528;2022-11-20T11:58:41;21.75;;;12.55;;
76380;SDS011;65202;52.520;10.528;2022-11-20T12:07:29;21.88;;;13.75;;
76380;SDS011;65202;52.520;10.528;2022-11-20T12:13:37;22.60;;;14.45;;
76380;SDS011;65202;52.520;10.528;2022-11-20T12:16:14;23.38;;;14.98;;
76380;SDS011;65202;52.520;10.528;2022-11-20T12:18:49;16.13;;;10.60;;
76380;SDS011;65202;52.520;10.528;2022-11-20T12:30:15;29.60;;;18.70;;
76380;SDS011;65202;52.520;10.528;2022-11-20T12:43:27;22.80;;;14.35;;
76380;SDS011;65202;52.520;10.528;2022-11-20T12:46:39;20.77;;;13.88;;
76380;SDS011;65202;52.520;10.528;2022-11-20T12:49:37;22.88;;;13.73;;
76380;SDS011;65202;52.520;10.528;2022-11-20T12:55:32;20.02;;;12.77;;
76380;SDS011;65202;52.520;10.528;2022-11-20T12:58:19;21.67;;;12.93;;
76380;SDS011;65202;52.520;10.528;2022-11-20T13:04:15;22.92;;;14.23;;
76380;SDS011;65202;52.520;10.528;2022-11-20T13:07:15;22.75;;;13.80;;
76380;SDS011;65202;52.520;10.528;2022-11-20T13:09:45;40.47;;;21.25;;
76380;SDS011;65202;52.520;10.528;2022-11-20T13:12:19;20.92;;;13.30;;
76380;SDS011;65202;52.520;10.528;2022-11-20T13:18:02;19.85;;;12.75;;
76380;SDS011;65202;52.520;10.528;2022-11-20T13:20:35;23.13;;;12.75;;
76380;SDS011;65202;52.520;10.528;2022-11-20T13:23:09;21.05;;;12.73;;
76380;SDS011;65202;52.520;10.528;2022-11-20T13:25:37;21.30;;;12.90;;
76380;SDS011;65202;52.520;10.528;2022-11-20T13:30:37;23.85;;;13.50;;
76380;SDS011;65202;52.520;10.528;2022-11-20T13:33:30;19.13;;;12.30;;
76380;SDS011;65202;52.520;10.528;2022-11-20T13:36:02;20.38;;;12.02;;
76380;SDS011;65202;52.520;10.528;2022-11-20T13:38:42;14.48;;;9.77;;
76380;SDS011;65202;52.520;10.528;2022-11-20T13:44:14;17.45;;;11.13;;
76380;SDS011;65202;52.520;10.528;2022-11-20T13:46:54;15.55;;;8.90;;
76380;SDS011;65202;52.520;10.528;2022-11-20T13:55:43;14.20;;;9.38;;
76380;SDS011;65202;52.520;10.528;2022-11-20T14:01:41;13.40;;;8.90;;
76380;SDS011;65202;52.520;10.528;2022-11-20T14:04:14;11.57;;;8.25;;
76380;SDS011;65202;52.520;10.528;2022-11-20T14:06:47;13.82;;;8.90;;
76380;SDS011;65202;52.520;10.528;2022-11-20T14:09:31;15.13;;;8.65;;
76380;SDS011;65202;52.520;10.528;2022-11-20T14:12:02;12.85;;;9.20;;
76380;SDS011;65202;52.520;10.528;2022-11-20T14:14:32;14.45;;;8.65;;
76380;SDS011;65202;52.520;10.528;2022-11-20T14:17:17;13.38;;;9.20;;
76380;SDS011;65202;52.520;10.528;2022-11-20T14:19:46;14.30;;;9.32;;
76380;SDS011;65202;52.520;10.528;2022-11-20T14:30:26;14.00;;;9.52;;
76380;SDS011;65202;52.520;10.528;2022-11-20T14:33:04;15.77;;;9.82;;
76380;SDS011;65202;52.520;10.528;2022-11-20T14:35:35;18.08;;;10.43;;
76380;SDS011;65202;52.520;10.528;2022-11-20T14:38:15;14.60;;;9.95;;
76380;SDS011;65202;52.520;10.528;2022-11-20T14:40:46;20.40;;;10.43;;
76380;SDS011;65202;52.520;10.528;2022-11-20T14:43:24;18.63;;;11.18;;
76380;SDS011;65202;52.520;10.528;2022-11-20T14:45:56;16.27;;;10.93;;
76380;SDS011;65202;52.520;10.528;2022-11-20T14:48:47;18.95;;;11.43;;
76380;SDS011;65202;52.520;10.528;2022-11-20T14:51:30;15.35;;;10.70;;
76380;SDS011;65202;52.520;10.528;2022-11-20T14:54:18;17.80;;;10.63;;
76380;SDS011;65202;52.520;10.528;2022-11-20T14:56:58;16.27;;;10.70;;
76380;SDS011;65202;52.520;10.528;2022-11-20T14:59:31;23.25;;;15.55;;
76380;SDS011;65202;52.520;10.528;2022-11-20T15:02:02;18.13;;;11.65;;
76380;SDS011;65202;52.520;10.528;2022-11-20T15:04:47;19.10;;;11.25;;
76380;SDS011;65202;52.520;10.528;2022-11-20T15:07:27;16.40;;;11.07;;
76380;SDS011;65202;52.520;10.528;2022-11-20T15:10:02;17.80;;;11.38;;
76380;SDS011;65202;52.520;10.528;2022-11-20T15:12:33;21.25;;;12.52;;
76380;SDS011;65202;52.520;10.528;2022-11-20T15:15:05;20.15;;;12.18;;
76380;SDS011;65202;52.520;10.528;2022-11-20T15:17:38;20.48;;;13.35;;
76380;SDS011;65202;52.520;10.528;2022-11-20T15:20:11;20.70;;;12.27;;
76380;SDS011;65202;52.520;10.528;2022-11-20T15:22:42;21.13;;;12.95;;
76380;SDS011;65202;52.520;10.528;2022-11-20T15:25:13;20.80;;;13.70;;
76380;SDS011;65202;52.520;10.528;2022-11-20T15:30:18;25.50;;;14.05;;
76380;SDS011;65202;52.520;10.528;2022-11-20T15:32:47;30.60;;;18.65;;
76380;SDS011;65202;52.520;10.528;2022-11-20T15:35:15;25.42;;;14.48;;
76380;SDS011;65202;52.520;10.528;2022-11-20T15:37:42;23.73;;;13.85;;
76380;SDS011;65202;52.520;10.528;2022-11-20T15:40:10;19.75;;;12.90;;
76380;SDS011;65202;52.520;10.528;2022-11-20T15:42:38;21.50;;;13.73;;
76380;SDS011;65202;52.520;10.528;2022-11-20T15:45:25;23.48;;;12.80;;
76380;SDS011;65202;52.520;10.528;2022-11-20T15:47:59;20.77;;;13.18;;
76380;SDS011;65202;52.520;10.528;2022-11-20T15:50:30;20.33;;;12.15;;
76380;SDS011;65202;52.520;10.528;2022-11-20T15:53:04;16.67;;;11.15;;
76380;SDS011;65202;52.520;10.528;2022-11-20T15:55:32;16.98;;;11.38;;
76380;SDS011;65202;52.520;10.528;2022-11-20T15:57:59;19.23;;;12.63;;
76380;SDS011;65202;52.520;10.528;2022-11-20T16:00:26;26.63;;;15.80;;
76380;SDS011;65202;52.520;10.528;2022-11-20T16:02:53;54.63;;;26.45;;
76380;SDS011;65202;52.520;10.528;2022-11-20T16:05:21;72.57;;;30.55;;
76380;SDS011;65202;52.520;10.528;2022-11-20T16:07:50;106.28;;;46.05;;
76380;SDS011;65202;52.520;10.528;2022-11-20T16:10:18;60.83;;;30.98;;
76380;SDS011;65202;52.520;10.528;2022-11-20T16:12:45;47.63;;;26.55;;
76380;SDS011;65202;52.520;10.528;2022-11-20T16:15:30;30.33;;;20.80;;
76380;SDS011;65202;52.520;10.528;2022-11-20T16:18:14;27.88;;;18.02;;
76380;SDS011;65202;52.520;10.528;2022-11-20T16:20:45;32.92;;;21.75;;
76380;SDS011;65202;52.520;10.528;2022-11-20T16:23:15;27.70;;;19.92;;
76380;SDS011;65202;52.520;10.528;2022-11-20T16:25:43;28.27;;;16.52;;